Ontario, California
Current Conditions -  °F | °C
As of 1:53 PM on Monday 26 Jan 2015 (Local Time) from KONT Reporting Station
Overcast Overcast  
Wind Chill: 74°   Ceiling: 9000
Heat Index: 74°   Visibility: 10mi
Dew Point: 41°   Wind: 10mph
Humidity: 30%   Direction: 130°SE
Pressure: 30"   Gusts: NA
Location:  34.06°N, 117.64°W
Report Text: KONT 262153Z 13009KT 10SM FEW070 BKN090 OVC120 23/05 A3000 RMK AO2 SLP148 VIRGA S SHRA DSNT NE AND E FU SW T02330050
Loading
Personal Weather Stations






























Interactive Weather Map New forecast layout! Learn more

10-Day Weather Forecast

Advertisements
Track Severe Weather on mobile